Main page
METAR-TAF:

METAR-TAF

Airports :

Orio al Serio International Airport

Bergamo, Italy

latitude: 45-40N, longitude: 009-42E, elevation: 238 m

Current weather observation

The report was made 28 minutes ago, at 13:20 UTC
Wind 5 kt from variable directions
Temperature 27°C
Humidity 48%
Pressure 1016 hPa
Visibility 10 km or more
Few clouds at a height of 4500 ft

METAR: LIME 171320Z VRB05KT 9999 FEW045 27/15 Q1016 NOSIG

Time: 15:48 (13:48 UTC)

Forecast

The report was made 2 hours and 48 minutes ago, at 11:00 UTC
Forecast valid from 17 at 12 UTC to 18 at 12 UTC
Wind 3 kt from variable directions
Visibility 10 km or more
Few clouds at a height of 3000 ft

TAF: LIME 171100Z 1712/1812 VRB03KT 9999 FEW030

Weather observations and forecasts of more than 4000 airports (METAR and TAF reports).

The available stations are represented by yellow and red dots on the map.

Hover mouse over dot to see the name of the station.

Then click to see weather observations and forecasts.

To change the map : click on the green buttons with a black cross to zoom in, on the green button with a dash to zoom out, or on the green arrows for adjacent maps.


METAR-TAF: